sensor_id;sensor_type;location;lat;lon;timestamp;pressure;altitude;pressure_sealevel;temperature;humidity
50672;BME280;46021;55.882;37.654;2022-07-25T00:00:40;98737.19;;;18.63;65.75
50672;BME280;46021;55.882;37.654;2022-07-25T00:03:07;98728.69;;;18.59;65.58
50672;BME280;46021;55.882;37.654;2022-07-25T00:05:34;98718.72;;;18.51;65.72
50672;BME280;46021;55.882;37.654;2022-07-25T00:08:01;98723.06;;;18.53;65.77
50672;BME280;46021;55.882;37.654;2022-07-25T00:10:27;98717.91;;;18.51;66.15
50672;BME280;46021;55.882;37.654;2022-07-25T00:12:54;98717.31;;;18.47;66.37
50672;BME280;46021;55.882;37.654;2022-07-25T00:15:20;98717.66;;;18.43;66.52
50672;BME280;46021;55.882;37.654;2022-07-25T00:17:48;98708.31;;;18.39;66.73
50672;BME280;46021;55.882;37.654;2022-07-25T00:20:14;98714.81;;;18.35;66.79
50672;BME280;46021;55.882;37.654;2022-07-25T00:22:41;98712.41;;;18.31;67.20
50672;BME280;46021;55.882;37.654;2022-07-25T00:25:09;98711.94;;;18.26;66.89
50672;BME280;46021;55.882;37.654;2022-07-25T00:27:36;98713.88;;;18.24;67.42
50672;BME280;46021;55.882;37.654;2022-07-25T00:30:04;98704.50;;;18.20;67.56
50672;BME280;46021;55.882;37.654;2022-07-25T00:32:30;98706.69;;;18.15;67.29
50672;BME280;46021;55.882;37.654;2022-07-25T00:34:57;98708.59;;;18.13;67.69
50672;BME280;46021;55.882;37.654;2022-07-25T00:37:23;98711.47;;;18.10;68.18
50672;BME280;46021;55.882;37.654;2022-07-25T00:39:51;98714.94;;;18.10;69.02
50672;BME280;46021;55.882;37.654;2022-07-25T00:42:19;98703.19;;;18.03;68.26
50672;BME280;46021;55.882;37.654;2022-07-25T00:44:46;98705.69;;;18.05;68.32
50672;BME280;46021;55.882;37.654;2022-07-25T00:47:12;98697.78;;;18.05;67.74
50672;BME280;46021;55.882;37.654;2022-07-25T00:49:39;98705.69;;;18.05;67.85
50672;BME280;46021;55.882;37.654;2022-07-25T00:52:07;98696.00;;;18.05;67.85
50672;BME280;46021;55.882;37.654;2022-07-25T00:54:34;98701.41;;;18.04;67.80
50672;BME280;46021;55.882;37.654;2022-07-25T00:57:00;98703.31;;;18.02;67.94
50672;BME280;46021;55.882;37.654;2022-07-25T00:59:27;98702.72;;;17.98;68.04
50672;BME280;46021;55.882;37.654;2022-07-25T01:01:54;98696.03;;;17.94;68.75
50672;BME280;46021;55.882;37.654;2022-07-25T01:04:21;98695.31;;;17.92;68.87
50672;BME280;46021;55.882;37.654;2022-07-25T01:06:48;98691.34;;;17.86;68.68
50672;BME280;46021;55.882;37.654;2022-07-25T01:09:15;98701.88;;;17.86;69.20
50672;BME280;46021;55.882;37.654;2022-07-25T01:11:41;98703.03;;;17.82;69.62
50672;BME280;46021;55.882;37.654;2022-07-25T01:14:08;98700.66;;;17.79;69.42
50672;BME280;46021;55.882;37.654;2022-07-25T01:16:35;98702.56;;;17.77;69.54
50672;BME280;46021;55.882;37.654;2022-07-25T01:19:02;98699.22;;;17.75;69.28
50672;BME280;46021;55.882;37.654;2022-07-25T01:21:29;98697.53;;;17.74;69.84
50672;BME280;46021;55.882;37.654;2022-07-25T01:23:56;98702.78;;;17.74;69.73
50672;BME280;46021;55.882;37.654;2022-07-25T01:26:22;98707.84;;;17.77;70.08
50672;BME280;46021;55.882;37.654;2022-07-25T01:28:49;98708.78;;;17.76;70.00
50672;BME280;46021;55.882;37.654;2022-07-25T01:31:15;98706.16;;;17.76;69.67
50672;BME280;46021;55.882;37.654;2022-07-25T01:33:42;98704.22;;;17.78;70.50
50672;BME280;46021;55.882;37.654;2022-07-25T01:36:09;98704.00;;;17.81;70.32
50672;BME280;46021;55.882;37.654;2022-07-25T01:38:36;98708.44;;;17.81;70.38
50672;BME280;46021;55.882;37.654;2022-07-25T01:41:03;98712.84;;;17.80;70.58
50672;BME280;46021;55.882;37.654;2022-07-25T01:43:30;98716.00;;;17.85;70.09
50672;BME280;46021;55.882;37.654;2022-07-25T01:45:56;98714.59;;;17.92;69.97
50672;BME280;46021;55.882;37.654;2022-07-25T01:48:23;98712.91;;;18.03;70.18
50672;BME280;46021;55.882;37.654;2022-07-25T01:50:50;98724.66;;;18.10;70.34
50672;BME280;46021;55.882;37.654;2022-07-25T01:53:16;98720.09;;;18.12;69.88
50672;BME280;46021;55.882;37.654;2022-07-25T01:55:44;98716.25;;;18.16;69.93
50672;BME280;46021;55.882;37.654;2022-07-25T01:58:11;98708.34;;;18.16;69.99
50672;BME280;46021;55.882;37.654;2022-07-25T02:00:38;98716.25;;;18.27;69.85
50672;BME280;46021;55.882;37.654;2022-07-25T02:03:05;98724.63;;;18.33;69.99
50672;BME280;46021;55.882;37.654;2022-07-25T02:05:49;98713.84;;;18.36;69.50
50672;BME280;46021;55.882;37.654;2022-07-25T02:08:16;98707.25;;;18.41;69.52
50672;BME280;46021;55.882;37.654;2022-07-25T02:10:42;98710.44;;;18.45;69.69
50672;BME280;46021;55.882;37.654;2022-07-25T02:13:10;98711.75;;;18.50;69.66
50672;BME280;46021;55.882;37.654;2022-07-25T02:15:57;98699.31;;;18.53;69.14
50672;BME280;46021;55.882;37.654;2022-07-25T02:18:24;98706.94;;;18.67;69.42
50672;BME280;46021;55.882;37.654;2022-07-25T02:20:50;98703.66;;;18.75;68.82
50672;BME280;46021;55.882;37.654;2022-07-25T02:23:17;98704.88;;;18.82;68.86
50672;BME280;46021;55.882;37.654;2022-07-25T02:25:43;98702.22;;;18.93;68.64
50672;BME280;46021;55.882;37.654;2022-07-25T02:28:10;98707.69;;;19.01;68.68
50672;BME280;46021;55.882;37.654;2022-07-25T02:30:37;98707.06;;;19.09;68.64
50672;BME280;46021;55.882;37.654;2022-07-25T02:33:04;98709.06;;;19.17;68.16
50672;BME280;46021;55.882;37.654;2022-07-25T02:35:30;98707.16;;;19.19;68.09
50672;BME280;46021;55.882;37.654;2022-07-25T02:37:57;98706.50;;;19.26;68.49
50672;BME280;46021;55.882;37.654;2022-07-25T02:40:24;98715.47;;;19.35;68.40
50672;BME280;46021;55.882;37.654;2022-07-25T02:42:51;98713.72;;;19.45;67.98
50672;BME280;46021;55.882;37.654;2022-07-25T02:45:18;98708.75;;;19.52;67.54
50672;BME280;46021;55.882;37.654;2022-07-25T02:47:44;98714.94;;;19.62;67.29
50672;BME280;46021;55.882;37.654;2022-07-25T02:50:11;98711.41;;;19.73;67.50
50672;BME280;46021;55.882;37.654;2022-07-25T02:52:41;98709.66;;;19.83;66.93
50672;BME280;46021;55.882;37.654;2022-07-25T02:55:08;98715.13;;;19.92;66.52
50672;BME280;46021;55.882;37.654;2022-07-25T02:57:34;98719.66;;;20.11;66.98
50672;BME280;46021;55.882;37.654;2022-07-25T03:00:01;98718.34;;;20.36;66.46
50672;BME280;46021;55.882;37.654;2022-07-25T03:02:30;98714.81;;;20.66;66.56
50672;BME280;46021;55.882;37.654;2022-07-25T03:04:57;98710.00;;;21.00;66.80
50672;BME280;46021;55.882;37.654;2022-07-25T03:07:23;98712.91;;;21.36;65.45
50672;BME280;46021;55.882;37.654;2022-07-25T03:09:50;98710.78;;;21.69;65.19
50672;BME280;46021;55.882;37.654;2022-07-25T03:12:16;98702.44;;;22.02;64.14
50672;BME280;46021;55.882;37.654;2022-07-25T03:14:43;98705.44;;;22.26;63.05
50672;BME280;46021;55.882;37.654;2022-07-25T03:17:09;98701.00;;;22.45;62.45
50672;BME280;46021;55.882;37.654;2022-07-25T03:19:37;98698.06;;;22.66;61.57
50672;BME280;46021;55.882;37.654;2022-07-25T03:22:03;98706.97;;;22.74;60.80
50672;BME280;46021;55.882;37.654;2022-07-25T03:24:30;98702.19;;;22.96;60.52
50672;BME280;46021;55.882;37.654;2022-07-25T03:26:56;98706.53;;;23.15;59.74
50672;BME280;46021;55.882;37.654;2022-07-25T03:29:23;98699.00;;;23.28;59.28
50672;BME280;46021;55.882;37.654;2022-07-25T03:31:49;98695.22;;;23.31;58.35
50672;BME280;46021;55.882;37.654;2022-07-25T03:34:16;98698.75;;;23.40;57.96
50672;BME280;46021;55.882;37.654;2022-07-25T03:36:43;98695.63;;;23.70;58.26
50672;BME280;46021;55.882;37.654;2022-07-25T03:39:09;98689.50;;;24.04;57.42
50672;BME280;46021;55.882;37.654;2022-07-25T03:41:36;98695.44;;;24.32;56.57
50672;BME280;46021;55.882;37.654;2022-07-25T03:44:03;98701.38;;;24.52;55.92
50672;BME280;46021;55.882;37.654;2022-07-25T03:46:29;98690.44;;;24.72;55.22
50672;BME280;46021;55.882;37.654;2022-07-25T03:48:56;98685.59;;;24.84;54.33
50672;BME280;46021;55.882;37.654;2022-07-25T03:51:23;98692.13;;;25.06;54.28
50672;BME280;46021;55.882;37.654;2022-07-25T03:53:50;98693.50;;;25.35;54.34
50672;BME280;46021;55.882;37.654;2022-07-25T03:56:30;98694.97;;;25.62;53.57
50672;BME280;46021;55.882;37.654;2022-07-25T03:58:57;98694.94;;;25.70;52.30
50672;BME280;46021;55.882;37.654;2022-07-25T04:01:24;98693.50;;;25.51;52.00
50672;BME280;46021;55.882;37.654;2022-07-25T04:03:50;98694.34;;;25.43;52.67
50672;BME280;46021;55.882;37.654;2022-07-25T04:06:17;98690.19;;;25.41;52.57
50672;BME280;46021;55.882;37.654;2022-07-25T04:08:43;98689.16;;;25.50;52.43
50672;BME280;46021;55.882;37.654;2022-07-25T04:11:11;98684.41;;;25.85;52.60
50672;BME280;46021;55.882;37.654;2022-07-25T04:13:37;98702.25;;;26.40;51.73
50672;BME280;46021;55.882;37.654;2022-07-25T04:16:04;98693.06;;;26.74;50.53
50672;BME280;46021;55.882;37.654;2022-07-25T04:18:31;98687.50;;;27.07;49.85
50672;BME280;46021;55.882;37.654;2022-07-25T04:20:57;98682.38;;;27.20;48.84
50672;BME280;46021;55.882;37.654;2022-07-25T04:23:24;98690.13;;;27.53;48.54
50672;BME280;46021;55.882;37.654;2022-07-25T04:25:51;98681.41;;;27.89;48.14
50672;BME280;46021;55.882;37.654;2022-07-25T04:28:18;98687.22;;;28.23;47.44
50672;BME280;46021;55.882;37.654;2022-07-25T04:30:45;98699.69;;;28.30;46.33
50672;BME280;46021;55.882;37.654;2022-07-25T04:33:11;98702.59;;;28.50;46.35
50672;BME280;46021;55.882;37.654;2022-07-25T04:35:38;98696.06;;;28.74;44.74
50672;BME280;46021;55.882;37.654;2022-07-25T04:38:05;98694.44;;;28.95;45.90
50672;BME280;46021;55.882;37.654;2022-07-25T04:40:32;98688.63;;;29.13;45.26
50672;BME280;46021;55.882;37.654;2022-07-25T04:42:58;98690.19;;;29.50;44.56
50672;BME280;46021;55.882;37.654;2022-07-25T04:45:26;98689.78;;;29.53;43.74
50672;BME280;46021;55.882;37.654;2022-07-25T04:47:52;98692.22;;;29.48;43.38
50672;BME280;46021;55.882;37.654;2022-07-25T04:50:19;98691.25;;;29.28;43.57
50672;BME280;46021;55.882;37.654;2022-07-25T04:52:45;98690.47;;;29.12;43.53
50672;BME280;46021;55.882;37.654;2022-07-25T04:55:12;98683.69;;;29.38;43.63
50672;BME280;46021;55.882;37.654;2022-07-25T04:57:38;98690.31;;;29.70;43.22
50672;BME280;46021;55.882;37.654;2022-07-25T05:00:07;98688.03;;;29.96;42.72
50672;BME280;46021;55.882;37.654;2022-07-25T05:02:35;98683.28;;;30.33;42.30
50672;BME280;46021;55.882;37.654;2022-07-25T05:05:02;98675.94;;;30.81;41.61
50672;BME280;46021;55.882;37.654;2022-07-25T05:07:29;98675.16;;;31.34;41.03
50672;BME280;46021;55.882;37.654;2022-07-25T05:09:56;98678.03;;;31.79;40.37
50672;BME280;46021;55.882;37.654;2022-07-25T05:12:22;98674.22;;;32.20;38.80
50672;BME280;46021;55.882;37.654;2022-07-25T05:14:49;98683.91;;;32.35;39.19
50672;BME280;46021;55.882;37.654;2022-07-25T05:17:15;98679.97;;;32.31;37.81
50672;BME280;46021;55.882;37.654;2022-07-25T05:19:44;98675.03;;;32.21;38.73
50672;BME280;46021;55.882;37.654;2022-07-25T05:22:11;98677.56;;;32.16;38.52
50672;BME280;46021;55.882;37.654;2022-07-25T05:24:37;98676.50;;;32.17;37.53
50672;BME280;46021;55.882;37.654;2022-07-25T05:27:04;98675.03;;;32.28;38.19
50672;BME280;46021;55.882;37.654;2022-07-25T05:29:31;98680.47;;;32.14;38.13
50672;BME280;46021;55.882;37.654;2022-07-25T05:31:57;98679.19;;;32.23;38.34
50672;BME280;46021;55.882;37.654;2022-07-25T05:34:24;98686.22;;;32.31;37.38
50672;BME280;46021;55.882;37.654;2022-07-25T05:36:51;98689.06;;;32.43;37.80
50672;BME280;46021;55.882;37.654;2022-07-25T05:39:17;98685.91;;;32.59;37.93
50672;BME280;46021;55.882;37.654;2022-07-25T05:41:44;98691.16;;;32.79;37.12
50672;BME280;46021;55.882;37.654;2022-07-25T05:44:11;98680.78;;;33.15;37.08
50672;BME280;46021;55.882;37.654;2022-07-25T05:46:37;98683.91;;;33.62;36.67
50672;BME280;46021;55.882;37.654;2022-07-25T05:49:04;98679.53;;;33.61;36.55
50672;BME280;46021;55.882;37.654;2022-07-25T05:51:30;98684.13;;;33.10;36.35
50672;BME280;46021;55.882;37.654;2022-07-25T05:53:57;98681.34;;;32.92;36.30
50672;BME280;46021;55.882;37.654;2022-07-25T05:56:24;98679.13;;;32.37;36.72
50672;BME280;46021;55.882;37.654;2022-07-25T05:58:51;98679.22;;;32.69;37.38
50672;BME280;46021;55.882;37.654;2022-07-25T06:01:17;98682.16;;;33.24;36.55
50672;BME280;46021;55.882;37.654;2022-07-25T06:03:44;98679.91;;;33.46;35.68
50672;BME280;46021;55.882;37.654;2022-07-25T06:06:12;98672.63;;;33.21;35.42
50672;BME280;46021;55.882;37.654;2022-07-25T06:08:39;98674.56;;;33.08;35.36
50672;BME280;46021;55.882;37.654;2022-07-25T06:11:07;98664.47;;;32.64;35.12
50672;BME280;46021;55.882;37.654;2022-07-25T06:13:33;98663.72;;;31.92;36.58
50672;BME280;46021;55.882;37.654;2022-07-25T06:15:59;98660.25;;;31.45;37.19
50672;BME280;46021;55.882;37.654;2022-07-25T06:18:28;98674.28;;;30.87;37.39
50672;BME280;46021;55.882;37.654;2022-07-25T06:20:54;98668.97;;;29.90;38.64
50672;BME280;46021;55.882;37.654;2022-07-25T06:23:21;98666.56;;;28.96;40.41
50672;BME280;46021;55.882;37.654;2022-07-25T06:25:47;98666.88;;;28.28;42.04
50672;BME280;46021;55.882;37.654;2022-07-25T06:28:15;98676.47;;;27.78;42.03
50672;BME280;46021;55.882;37.654;2022-07-25T06:30:42;98665.91;;;27.47;42.73
50672;BME280;46021;55.882;37.654;2022-07-25T06:33:09;98674.84;;;27.39;43.12
50672;BME280;46021;55.882;37.654;2022-07-25T06:35:35;98677.38;;;27.17;43.93
50672;BME280;46021;55.882;37.654;2022-07-25T06:38:02;98680.16;;;27.01;44.11
50672;BME280;46021;55.882;37.654;2022-07-25T06:40:29;98685.16;;;26.50;45.55
50672;BME280;46021;55.882;37.654;2022-07-25T06:42:56;98683.31;;;26.50;45.07
50672;BME280;46021;55.882;37.654;2022-07-25T06:45:23;98681.56;;;26.34;45.14
50672;BME280;46021;55.882;37.654;2022-07-25T06:47:50;98685.66;;;26.22;45.59
50672;BME280;46021;55.882;37.654;2022-07-25T06:50:18;98683.47;;;26.17;45.71
50672;BME280;46021;55.882;37.654;2022-07-25T06:52:45;98679.63;;;26.20;45.65
50672;BME280;46021;55.882;37.654;2022-07-25T06:55:12;98680.59;;;26.35;46.11
50672;BME280;46021;55.882;37.654;2022-07-25T06:57:39;98680.69;;;26.42;45.85
50672;BME280;46021;55.882;37.654;2022-07-25T07:00:08;98676.63;;;26.54;45.78
50672;BME280;46021;55.882;37.654;2022-07-25T07:02:46;98678.47;;;26.62;45.70
50672;BME280;46021;55.882;37.654;2022-07-25T07:05:13;98667.34;;;26.73;45.67
50672;BME280;46021;55.882;37.654;2022-07-25T07:07:40;98665.25;;;26.83;46.07
50672;BME280;46021;55.882;37.654;2022-07-25T07:10:07;98675.25;;;26.90;45.71
50672;BME280;46021;55.882;37.654;2022-07-25T07:12:33;98663.72;;;26.66;46.97
50672;BME280;46021;55.882;37.654;2022-07-25T07:15:00;98667.09;;;26.52;46.82
50672;BME280;46021;55.882;37.654;2022-07-25T07:17:27;98668.94;;;26.20;46.77
50672;BME280;46021;55.882;37.654;2022-07-25T07:19:54;98677.22;;;26.02;47.02
50672;BME280;46021;55.882;37.654;2022-07-25T07:22:20;98675.69;;;25.91;48.21
50672;BME280;46021;55.882;37.654;2022-07-25T07:24:47;98672.09;;;25.76;47.79
50672;BME280;46021;55.882;37.654;2022-07-25T07:27:14;98679.44;;;25.74;48.16
50672;BME280;46021;55.882;37.654;2022-07-25T07:29:40;98684.56;;;25.83;47.90
50672;BME280;46021;55.882;37.654;2022-07-25T07:32:07;98680.75;;;25.94;47.71
50672;BME280;46021;55.882;37.654;2022-07-25T07:34:33;98681.72;;;25.93;47.61
50672;BME280;46021;55.882;37.654;2022-07-25T07:37:01;98690.03;;;26.06;47.34
50672;BME280;46021;55.882;37.654;2022-07-25T07:39:28;98681.63;;;26.26;46.80
50672;BME280;46021;55.882;37.654;2022-07-25T07:41:54;98685.38;;;26.40;46.40
50672;BME280;46021;55.882;37.654;2022-07-25T07:44:21;98688.53;;;26.43;46.36
50672;BME280;46021;55.882;37.654;2022-07-25T07:46:47;98688.97;;;26.55;46.12
50672;BME280;46021;55.882;37.654;2022-07-25T07:49:15;98680.91;;;26.72;45.66
50672;BME280;46021;55.882;37.654;2022-07-25T07:51:42;98683.19;;;26.75;45.14
50672;BME280;46021;55.882;37.654;2022-07-25T07:54:09;98681.31;;;26.83;45.18
50672;BME280;46021;55.882;37.654;2022-07-25T07:56:54;98682.97;;;27.08;45.10
50672;BME280;46021;55.882;37.654;2022-07-25T07:59:21;98671.97;;;27.26;44.70
50672;BME280;46021;55.882;37.654;2022-07-25T08:01:47;98678.84;;;27.43;44.64
50672;BME280;46021;55.882;37.654;2022-07-25T08:04:14;98672.94;;;27.48;44.49
50672;BME280;46021;55.882;37.654;2022-07-25T08:06:41;98671.66;;;27.20;44.70
50672;BME280;46021;55.882;37.654;2022-07-25T08:09:07;98669.78;;;26.83;45.64
50672;BME280;46021;55.882;37.654;2022-07-25T08:11:35;98680.72;;;26.73;45.94
50672;BME280;46021;55.882;37.654;2022-07-25T08:14:01;98672.31;;;26.76;45.52
50672;BME280;46021;55.882;37.654;2022-07-25T08:16:29;98681.06;;;26.70;45.36
50672;BME280;46021;55.882;37.654;2022-07-25T08:18:56;98667.69;;;26.70;45.37
50672;BME280;46021;55.882;37.654;2022-07-25T08:21:22;98665.97;;;26.77;45.48
50672;BME280;46021;55.882;37.654;2022-07-25T08:23:49;98676.09;;;26.90;45.23
50672;BME280;46021;55.882;37.654;2022-07-25T08:26:15;98669.66;;;26.76;45.30
50672;BME280;46021;55.882;37.654;2022-07-25T08:28:42;98679.91;;;26.33;46.32
50672;BME280;46021;55.882;37.654;2022-07-25T08:31:08;98672.91;;;26.32;46.55
50672;BME280;46021;55.882;37.654;2022-07-25T08:33:35;98676.19;;;26.42;45.99
50672;BME280;46021;55.882;37.654;2022-07-25T08:36:02;98673.50;;;26.42;46.08
50672;BME280;46021;55.882;37.654;2022-07-25T08:38:29;98676.16;;;26.51;46.45
50672;BME280;46021;55.882;37.654;2022-07-25T08:40:56;98668.94;;;26.59;45.89
50672;BME280;46021;55.882;37.654;2022-07-25T08:43:23;98668.34;;;26.72;45.31
50672;BME280;46021;55.882;37.654;2022-07-25T08:45:52;98677.16;;;26.81;44.68
50672;BME280;46021;55.882;37.654;2022-07-25T08:48:20;98683.09;;;26.91;44.24
50672;BME280;46021;55.882;37.654;2022-07-25T08:50:48;98677.44;;;27.09;44.24
50672;BME280;46021;55.882;37.654;2022-07-25T08:53:16;98668.22;;;27.35;43.36
50672;BME280;46021;55.882;37.654;2022-07-25T08:55:44;98676.94;;;27.67;42.97
50672;BME280;46021;55.882;37.654;2022-07-25T08:58:12;98665.75;;;28.37;43.15
50672;BME280;46021;55.882;37.654;2022-07-25T09:00:39;98662.22;;;29.66;42.01
50672;BME280;46021;55.882;37.654;2022-07-25T09:03:07;98655.94;;;31.44;39.90
50672;BME280;46021;55.882;37.654;2022-07-25T09:05:35;98667.34;;;32.70;36.93
50672;BME280;46021;55.882;37.654;2022-07-25T09:08:06;98671.88;;;32.76;34.61
50672;BME280;46021;55.882;37.654;2022-07-25T09:10:32;98665.38;;;32.07;35.52
50672;BME280;46021;55.882;37.654;2022-07-25T09:13:02;98662.34;;;31.43;36.76
50672;BME280;46021;55.882;37.654;2022-07-25T09:15:30;98668.16;;;31.66;37.63
50672;BME280;46021;55.882;37.654;2022-07-25T09:17:58;98665.56;;;32.89;36.93
50672;BME280;46021;55.882;37.654;2022-07-25T09:20:37;98673.06;;;33.18;33.45
50672;BME280;46021;55.882;37.654;2022-07-25T09:23:04;98667.81;;;32.53;34.00
50672;BME280;46021;55.882;37.654;2022-07-25T09:25:30;98661.28;;;31.64;34.73
50672;BME280;46021;55.882;37.654;2022-07-25T09:28:09;98664.28;;;30.54;36.47
50672;BME280;46021;55.882;37.654;2022-07-25T09:30:35;98665.53;;;29.68;38.34
50672;BME280;46021;55.882;37.654;2022-07-25T09:33:02;98665.47;;;29.90;39.01
50672;BME280;46021;55.882;37.654;2022-07-25T09:35:29;98662.97;;;30.92;37.82
50672;BME280;46021;55.882;37.654;2022-07-25T09:38:09;98659.22;;;31.66;35.58
50672;BME280;46021;55.882;37.654;2022-07-25T09:40:36;98657.53;;;30.85;35.97
50672;BME280;46021;55.882;37.654;2022-07-25T09:43:03;98668.38;;;30.37;36.51
50672;BME280;46021;55.882;37.654;2022-07-25T09:45:30;98674.56;;;29.32;37.81
50672;BME280;46021;55.882;37.654;2022-07-25T09:47:57;98669.59;;;29.08;38.25
50672;BME280;46021;55.882;37.654;2022-07-25T09:50:25;98669.53;;;29.51;39.47
50672;BME280;46021;55.882;37.654;2022-07-25T09:52:53;98668.47;;;30.63;37.95
50672;BME280;46021;55.882;37.654;2022-07-25T09:55:22;98661.50;;;31.22;36.46
50672;BME280;46021;55.882;37.654;2022-07-25T09:57:49;98662.13;;;31.58;36.22
50672;BME280;46021;55.882;37.654;2022-07-25T10:00:19;98656.00;;;32.09;36.06
50672;BME280;46021;55.882;37.654;2022-07-25T10:02:51;98650.66;;;32.86;35.21
50672;BME280;46021;55.882;37.654;2022-07-25T10:05:30;98661.25;;;33.63;33.27
50672;BME280;46021;55.882;37.654;2022-07-25T10:08:05;98664.38;;;34.52;32.70
50672;BME280;46021;55.882;37.654;2022-07-25T10:10:36;98667.44;;;34.07;32.40
50672;BME280;46021;55.882;37.654;2022-07-25T10:13:06;98650.88;;;33.10;33.29
50672;BME280;46021;55.882;37.654;2022-07-25T10:15:43;98651.69;;;32.08;34.98
50672;BME280;46021;55.882;37.654;2022-07-25T10:18:11;98656.94;;;31.76;36.80
50672;BME280;46021;55.882;37.654;2022-07-25T10:20:38;98653.59;;;31.81;35.90
50672;BME280;46021;55.882;37.654;2022-07-25T10:23:16;98655.69;;;31.72;35.89
50672;BME280;46021;55.882;37.654;2022-07-25T10:25:43;98646.16;;;31.76;36.22
50672;BME280;46021;55.882;37.654;2022-07-25T10:28:09;98651.56;;;32.73;35.45
50672;BME280;46021;55.882;37.654;2022-07-25T10:30:39;98639.94;;;33.73;34.00
50672;BME280;46021;55.882;37.654;2022-07-25T10:33:11;98651.00;;;33.47;33.10
50672;BME280;46021;55.882;37.654;2022-07-25T10:35:38;98648.28;;;32.64;33.42
50672;BME280;46021;55.882;37.654;2022-07-25T10:38:06;98643.28;;;32.68;34.37
50672;BME280;46021;55.882;37.654;2022-07-25T10:40:35;98642.09;;;33.21;33.74
50672;BME280;46021;55.882;37.654;2022-07-25T10:43:13;98643.47;;;33.74;31.82
50672;BME280;46021;55.882;37.654;2022-07-25T10:45:41;98643.50;;;33.49;32.30
50672;BME280;46021;55.882;37.654;2022-07-25T10:48:10;98637.31;;;34.52;31.89
50672;BME280;46021;55.882;37.654;2022-07-25T10:50:48;98639.53;;;34.55;30.92
50672;BME280;46021;55.882;37.654;2022-07-25T10:53:26;98638.53;;;32.95;32.17
50672;BME280;46021;55.882;37.654;2022-07-25T10:55:56;98641.50;;;32.10;33.45
50672;BME280;46021;55.882;37.654;2022-07-25T10:58:23;98642.88;;;31.21;34.50
50672;BME280;46021;55.882;37.654;2022-07-25T11:00:50;98642.38;;;30.64;35.56
50672;BME280;46021;55.882;37.654;2022-07-25T11:03:17;98646.53;;;30.53;36.96
50672;BME280;46021;55.882;37.654;2022-07-25T11:05:44;98650.22;;;30.52;36.49
50672;BME280;46021;55.882;37.654;2022-07-25T11:08:10;98641.50;;;30.37;36.11
50672;BME280;46021;55.882;37.654;2022-07-25T11:10:37;98640.88;;;29.93;37.02
50672;BME280;46021;55.882;37.654;2022-07-25T11:13:04;98633.03;;;29.91;37.54
50672;BME280;46021;55.882;37.654;2022-07-25T11:15:31;98633.59;;;30.28;38.01
50672;BME280;46021;55.882;37.654;2022-07-25T11:17:57;98625.47;;;31.17;37.23
50672;BME280;46021;55.882;37.654;2022-07-25T11:20:24;98632.97;;;32.13;35.80
50672;BME280;46021;55.882;37.654;2022-07-25T11:22:53;98632.59;;;33.12;35.11
50672;BME280;46021;55.882;37.654;2022-07-25T11:25:21;98629.34;;;34.09;33.95
50672;BME280;46021;55.882;37.654;2022-07-25T11:27:54;98624.94;;;34.45;32.07
50672;BME280;46021;55.882;37.654;2022-07-25T11:30:21;98624.16;;;34.86;31.64
50672;BME280;46021;55.882;37.654;2022-07-25T11:32:49;98623.00;;;35.18;31.05
50672;BME280;46021;55.882;37.654;2022-07-25T11:35:20;98626.66;;;35.70;30.47
50672;BME280;46021;55.882;37.654;2022-07-25T11:37:47;98626.09;;;36.21;30.41
50672;BME280;46021;55.882;37.654;2022-07-25T11:40:15;98610.75;;;36.15;29.74
50672;BME280;46021;55.882;37.654;2022-07-25T11:42:42;98609.47;;;36.17;29.65
50672;BME280;46021;55.882;37.654;2022-07-25T11:45:16;98618.91;;;36.15;29.35
50672;BME280;46021;55.882;37.654;2022-07-25T11:47:43;98609.09;;;36.14;29.37
50672;BME280;46021;55.882;37.654;2022-07-25T11:50:11;98603.41;;;35.86;29.18
50672;BME280;46021;55.882;37.654;2022-07-25T11:52:41;98607.00;;;35.28;29.83
50672;BME280;46021;55.882;37.654;2022-07-25T11:55:10;98605.59;;;34.29;30.32
50672;BME280;46021;55.882;37.654;2022-07-25T11:57:39;98609.63;;;33.28;31.88
50672;BME280;46021;55.882;37.654;2022-07-25T12:00:10;98613.47;;;33.38;32.57
50672;BME280;46021;55.882;37.654;2022-07-25T12:02:41;98612.88;;;33.11;32.62
50672;BME280;46021;55.882;37.654;2022-07-25T12:05:09;98608.09;;;32.50;32.80
50672;BME280;46021;55.882;37.654;2022-07-25T12:07:40;98612.16;;;31.75;33.93
50672;BME280;46021;55.882;37.654;2022-07-25T12:10:11;98597.44;;;31.78;34.68
50672;BME280;46021;55.882;37.654;2022-07-25T12:12:48;98597.50;;;32.16;34.18
50672;BME280;46021;55.882;37.654;2022-07-25T12:15:18;98601.72;;;32.76;33.73
50672;BME280;46021;55.882;37.654;2022-07-25T12:17:45;98603.56;;;33.51;32.95
50672;BME280;46021;55.882;37.654;2022-07-25T12:20:14;98599.34;;;33.18;33.54
50672;BME280;46021;55.882;37.654;2022-07-25T12:22:42;98602.94;;;32.80;32.96
50672;BME280;46021;55.882;37.654;2022-07-25T12:25:09;98593.81;;;31.97;33.42
50672;BME280;46021;55.882;37.654;2022-07-25T12:27:36;98598.53;;;31.30;34.38
50672;BME280;46021;55.882;37.654;2022-07-25T12:30:03;98597.69;;;30.49;35.85
50672;BME280;46021;55.882;37.654;2022-07-25T12:32:30;98596.47;;;29.97;36.26
50672;BME280;46021;55.882;37.654;2022-07-25T12:34:57;98579.00;;;29.38;37.41
50672;BME280;46021;55.882;37.654;2022-07-25T12:37:24;98590.19;;;29.13;37.76
50672;BME280;46021;55.882;37.654;2022-07-25T12:39:52;98577.66;;;29.21;38.07
50672;BME280;46021;55.882;37.654;2022-07-25T12:42:19;98586.56;;;29.63;37.75
50672;BME280;46021;55.882;37.654;2022-07-25T12:44:45;98577.56;;;29.77;37.58
50672;BME280;46021;55.882;37.654;2022-07-25T12:47:12;98586.66;;;29.76;37.09
50672;BME280;46021;55.882;37.654;2022-07-25T12:49:38;98579.94;;;29.59;37.19
50672;BME280;46021;55.882;37.654;2022-07-25T12:52:05;98579.06;;;29.51;37.36